Bethany, West Virginia
Current Conditions -  °F | °C
As of 12:05 AM on Thursday 18 Dec 2014 (Local Time) from KHLG Reporting Station
Overcast Overcast  
Wind Chill: 17°   Ceiling: 2900
Heat Index: 28°   Visibility: 10mi
Dew Point: 18°   Wind: 14mph
Humidity: 66%   Direction: 270°W
Pressure: 30.16"   Gusts: NA
Location:  40.21°N, 80.56°W
Report Text: KHLG 180505Z AUTO 27012KT 10SM OVC029 M02/M08 A3016 RMK AO2 T10221078
Loading
Personal Weather Stations






























Interactive Weather Map New forecast layout! Learn more

10-Day Weather Forecast

Advertisements
Track Severe Weather on mobile